Sao Pedro do Piaui, Brazil
Current Conditions -  °F | °C
As of 11:00 AM on Wednesday 22 Oct 2014 (Local Time) from SBTE Reporting Station
Broken Clouds Broken Clouds  
Wind Chill: 30°   Ceiling: 2500
Heat Index: 34°   Visibility: 6mi
Dew Point: 23°   Wind: 3mph
Humidity: 66%   Direction: 30°NNE
Pressure: 29.91"   Gusts: NA
Location:  5.93°S, 42.72°W
Report Text: SBTE 221400Z 03003KT 9999 BKN025 30/23 Q1013
Loading
Personal Weather Stations






























Interactive Weather Map
Tropical Storm Tracking
New forecast layout! Learn more

10-Day Weather Forecast

Advertisements
Track Severe Weather on mobile